Time;durP1;ratioP1;P1;durP2;ratioP2;P2;SDS_P1;SDS_P2;PMS_P1;PMS_P2;Temp;Humidity;BMP_temperature;BMP_pressure;BME280_temperature;BME280_humidity;BME280_pressure;Samples;Min_cycle;Max_cycle;Signal;HPM_P1;HPM_P2
2021/01/03 00:01:57;;;;;;;8.98;7.07;;;;;;;3.29;64.23;98335.09;5054098;28;20248;-84
2021/01/03 00:04:23;;;;;;;9.07;6.10;;;;;;;3.28;64.14;98333.38;5039514;28;20247;-85
2021/01/03 00:06:51;;;;;;;8.30;6.75;;;;;;;3.26;64.09;98337.94;5046574;28;20221;-84
2021/01/03 00:09:18;;;;;;;9.20;7.15;;;;;;;3.25;64.15;98336.22;5051259;28;20225;-85
2021/01/03 00:11:45;;;;;;;8.75;7.07;;;;;;;3.26;64.39;98329.97;5045615;28;20209;-85
2021/01/03 00:14:11;;;;;;;12.75;8.45;;;;;;;3.25;64.56;98324.72;5058293;28;20649;-84
2021/01/03 00:16:37;;;;;;;8.45;6.68;;;;;;;3.23;64.34;98326.59;5035394;28;20216;-84
2021/01/03 00:19:04;;;;;;;8.75;6.88;;;;;;;3.22;64.74;98325.72;5055280;28;20224;-85
2021/01/03 00:21:31;;;;;;;9.43;7.40;;;;;;;3.33;64.27;98315.44;5049614;28;20314;-82
2021/01/03 00:23:57;;;;;;;9.23;7.18;;;;;;;3.18;64.89;98320.63;5041372;28;20279;-84
2021/01/03 00:26:24;;;;;;;9.75;6.25;;;;;;;3.25;65.17;98316.75;5055329;28;20746;-86
2021/01/03 00:28:50;;;;;;;8.50;6.68;;;;;;;3.29;64.30;98315.66;5060451;28;20698;-86
2021/01/03 00:31:19;;;;;;;9.52;7.28;;;;;;;3.18;64.62;98316.19;5044591;28;20351;-86
2021/01/03 00:33:45;;;;;;;8.48;7.05;;;;;;;3.16;64.83;98319.84;5037898;28;20264;-87
2021/01/03 00:36:12;;;;;;;11.93;7.85;;;;;;;3.31;64.05;98308.47;5051326;28;20678;-85
2021/01/03 00:38:38;;;;;;;8.15;6.25;;;;;;;3.34;64.12;98311.84;5068656;28;20205;-87
2021/01/03 00:41:04;;;;;;;9.50;7.15;;;;;;;3.21;64.29;98313.38;5053210;28;20221;-84
2021/01/03 00:43:31;;;;;;;8.50;6.50;;;;;;;3.19;64.65;98309.06;5061886;28;20248;-87
2021/01/03 00:45:59;;;;;;;8.98;7.32;;;;;;;3.07;64.63;98307.88;5036256;28;20235;-88
2021/01/03 00:51:46;;;;;;;10.60;7.07;;;;;;;3.09;65.27;98306.00;5061818;28;20220;-89
2021/01/03 00:54:12;;;;;;;10.50;7.50;;;;;;;3.09;64.95;98307.81;5067543;28;20264;-88
2021/01/03 00:56:39;;;;;;;9.98;6.57;;;;;;;3.07;64.58;98302.56;5051078;28;20207;-88
2021/01/03 00:59:08;;;;;;;9.55;6.70;;;;;;;3.11;64.69;98303.28;5046647;28;20228;-87
2021/01/03 01:01:34;;;;;;;9.25;6.95;;;;;;;3.14;64.75;98300.50;5044720;28;20220;-88
2021/01/03 01:04:00;;;;;;;10.63;7.95;;;;;;;3.14;65.12;98298.69;5042575;28;20279;-88
2021/01/03 01:06:26;;;;;;;12.68;7.68;;;;;;;3.06;65.24;98298.22;5054399;28;20252;-88
2021/01/03 01:08:56;;;;;;;10.27;7.65;;;;;;;3.13;65.26;98301.41;5027916;28;20631;-88
2021/01/03 01:11:28;;;;;;;12.15;7.75;;;;;;;3.08;65.61;98295.47;5043942;28;20683;-87
2021/01/03 01:13:55;;;;;;;10.25;7.97;;;;;;;3.05;65.72;98314.19;5049257;28;20243;-87
2021/01/03 01:16:21;;;;;;;10.75;7.78;;;;;;;2.99;65.70;98298.56;5038934;28;20228;-87
2021/01/03 01:18:48;;;;;;;12.90;8.48;;;;;;;2.96;65.70;98302.22;5051750;28;20204;-86
2021/01/03 01:21:14;;;;;;;11.50;8.43;;;;;;;2.90;66.35;98302.53;5059165;28;20220;-85
2021/01/03 01:23:41;;;;;;;10.98;8.70;;;;;;;2.84;66.48;98308.13;5061540;28;20427;-86
2021/01/03 01:26:07;;;;;;;11.20;8.35;;;;;;;2.84;66.57;98310.78;5057639;28;20212;-85
2021/01/03 01:28:33;;;;;;;10.40;7.70;;;;;;;2.90;66.70;98312.31;5043140;28;20228;-84
2021/01/03 01:30:59;;;;;;;13.25;9.00;;;;;;;2.93;66.51;98310.34;5054675;28;20212;-83
2021/01/03 01:33:25;;;;;;;10.90;8.30;;;;;;;2.88;66.81;98316.84;5044629;28;20219;-84
2021/01/03 01:35:57;;;;;;;12.10;9.35;;;;;;;2.94;66.66;98311.19;5054024;28;20200;-85
2021/01/03 01:38:24;;;;;;;12.93;9.40;;;;;;;2.87;66.97;98313.31;5045467;28;20563;-87
2021/01/03 01:40:50;;;;;;;10.65;8.00;;;;;;;2.86;66.82;98311.59;5028809;28;20230;-86
2021/01/03 01:43:17;;;;;;;11.43;8.65;;;;;;;2.84;67.34;98324.06;5033598;28;20221;-86
2021/01/03 01:45:46;;;;;;;12.48;8.63;;;;;;;2.85;67.59;98315.19;5038701;28;20216;-87
2021/01/03 01:48:20;;;;;;;12.50;9.23;;;;;;;2.87;67.12;98320.41;5030700;28;20229;-86
2021/01/03 01:50:54;;;;;;;15.93;9.40;;;;;;;2.84;67.41;98323.22;5052347;28;20280;-86
2021/01/03 01:54:01;;;;;;;14.10;10.15;;;;;;;2.84;67.63;98323.22;5046825;28;20226;-86
2021/01/03 01:56:27;;;;;;;13.73;10.18;;;;;;;2.86;67.24;98321.34;4986983;28;20220;-86
2021/01/03 01:58:56;;;;;;;12.25;9.40;;;;;;;2.89;67.29;98315.91;5032750;28;20303;-88
2021/01/03 02:01:35;;;;;;;14.63;10.00;;;;;;;3.01;66.93;98315.31;5018143;28;20232;-86
2021/01/03 02:04:19;;;;;;;14.65;9.63;;;;;;;2.91;67.24;98325.50;5035255;28;20230;-86
2021/01/03 02:06:53;;;;;;;12.98;9.30;;;;;;;2.83;67.17;98322.34;5052380;28;22657;-87
2021/01/03 02:09:31;;;;;;;12.15;9.25;;;;;;;2.74;67.14;98316.59;5056564;28;20254;-88
2021/01/03 02:12:14;;;;;;;13.45;9.63;;;;;;;2.78;67.29;98312.88;5042259;28;20257;-88
2021/01/03 02:14:42;;;;;;;15.30;10.45;;;;;;;2.66;68.00;98314.34;5035101;28;20215;-88
2021/01/03 02:17:09;;;;;;;13.48;9.93;;;;;;;2.68;67.95;98309.81;5067714;28;20219;-87
2021/01/03 02:19:35;;;;;;;12.30;9.98;;;;;;;2.66;68.11;98309.03;4996686;28;20221;-86
2021/01/03 02:22:19;;;;;;;12.80;9.50;;;;;;;2.60;68.20;98301.34;5029998;28;20212;-87
2021/01/03 02:25:04;;;;;;;13.90;10.40;;;;;;;2.71;67.97;98304.34;5020839;28;20217;-85
2021/01/03 02:27:47;;;;;;;13.80;9.85;;;;;;;2.66;68.18;98308.16;5033507;28;20255;-87
2021/01/03 02:30:15;;;;;;;14.85;10.35;;;;;;;2.70;67.95;98299.97;5030598;28;21081;-87
2021/01/03 02:32:45;;;;;;;14.45;10.30;;;;;;;2.79;67.79;98304.84;5022994;28;20215;-84
2021/01/03 02:35:13;;;;;;;14.10;10.25;;;;;;;2.75;68.07;98305.94;5062470;28;20296;-85
2021/01/03 02:37:47;;;;;;;17.65;10.32;;;;;;;2.75;68.18;98299.75;5031030;28;20224;-84
2021/01/03 02:40:18;;;;;;;13.80;9.15;;;;;;;2.75;67.95;98297.97;5050113;28;20230;-85
2021/01/03 02:42:45;;;;;;;16.48;10.82;;;;;;;2.77;68.29;98295.25;5052250;28;20217;-85
2021/01/03 02:45:18;;;;;;;16.15;10.77;;;;;;;2.80;68.01;98303.91;5037526;28;20207;-84
2021/01/03 02:47:46;;;;;;;14.55;10.57;;;;;;;2.77;68.24;98301.38;5043859;28;20260;-84
2021/01/03 02:50:16;;;;;;;14.13;10.25;;;;;;;2.79;67.79;98304.84;5028588;28;20235;-85
2021/01/03 02:52:44;;;;;;;14.48;9.85;;;;;;;2.81;68.23;98300.31;5038279;28;20226;-85
2021/01/03 02:55:12;;;;;;;14.05;10.00;;;;;;;2.85;67.67;98304.56;5055827;28;20235;-83
2021/01/03 02:57:39;;;;;;;14.20;9.95;;;;;;;2.81;67.81;98302.97;5023861;28;20764;-85
2021/01/03 03:00:08;;;;;;;14.00;10.10;;;;;;;2.85;67.57;98304.56;5057875;28;20208;-84
2021/01/03 03:02:35;;;;;;;14.10;9.55;;;;;;;2.88;67.82;98309.72;5036288;28;20229;-85
2021/01/03 03:05:02;;;;;;;13.45;10.00;;;;;;;2.95;68.00;98303.16;5039141;28;20225;-84
2021/01/03 03:07:28;;;;;;;13.07;9.40;;;;;;;2.93;67.44;98306.81;5036384;28;20279;-85
2021/01/03 03:09:54;;;;;;;11.57;8.43;;;;;;;2.90;67.60;98307.84;5020283;28;20219;-83
2021/01/03 03:12:22;;;;;;;14.18;10.00;;;;;;;2.84;68.11;98305.47;5041199;28;20224;-85
2021/01/03 03:14:49;;;;;;;11.05;9.15;;;;;;;2.82;67.96;98310.00;5038330;28;20349;-85
2021/01/03 03:17:17;;;;;;;15.02;9.40;;;;;;;2.75;68.25;98307.69;5046338;28;20248;-85
2021/01/03 03:19:43;;;;;;;12.90;9.20;;;;;;;2.81;68.05;98302.09;5050602;28;20216;-85
2021/01/03 03:22:09;;;;;;;13.10;9.80;;;;;;;2.85;68.12;98301.91;5040318;28;20247;-84
2021/01/03 03:24:35;;;;;;;11.70;8.75;;;;;;;2.82;68.07;98299.38;5058973;28;20283;-85
2021/01/03 03:27:04;;;;;;;11.65;9.45;;;;;;;2.84;67.90;98296.66;5026826;28;20734;-85
2021/01/03 03:29:31;;;;;;;16.27;10.93;;;;;;;2.76;68.42;98293.53;5039903;28;20228;-83
2021/01/03 03:31:58;;;;;;;12.80;9.80;;;;;;;2.81;68.64;98296.78;5050093;28;20658;-85
2021/01/03 03:34:26;;;;;;;10.35;8.68;;;;;;;2.80;68.24;98298.59;5057010;28;20211;-85
2021/01/03 03:36:57;;;;;;;13.43;9.10;;;;;;;2.81;67.64;98297.66;5050464;28;20233;-85
2021/01/03 03:39:24;;;;;;;13.30;8.88;;;;;;;2.70;68.38;98299.13;5067894;28;20208;-84
2021/01/03 03:42:16;;;;;;;11.52;8.98;;;;;;;2.80;67.95;98295.94;5074476;28;20227;-85
2021/01/03 03:44:43;;;;;;;14.18;9.38;;;;;;;2.78;67.70;98305.78;5049605;28;20215;-86
2021/01/03 03:47:09;;;;;;;11.85;8.75;;;;;;;2.70;68.33;98296.47;5068628;28;20976;-85
2021/01/03 03:49:35;;;;;;;11.80;9.80;;;;;;;2.64;68.38;98297.59;5047269;28;20209;-85
2021/01/03 03:52:05;;;;;;;10.77;9.23;;;;;;;2.64;68.57;98294.94;5044155;28;20221;-86
2021/01/03 03:54:32;;;;;;;12.13;9.50;;;;;;;2.65;68.75;98291.34;5038949;28;20227;-86
2021/01/03 03:57:01;;;;;;;10.05;8.32;;;;;;;2.63;68.79;98285.28;5055944;28;20755;-86
2021/01/03 03:59:28;;;;;;;11.52;9.45;;;;;;;2.72;68.28;98289.28;5039951;28;20208;-85
2021/01/03 04:01:54;;;;;;;12.88;9.75;;;;;;;2.73;68.71;98286.56;5048303;28;20232;-84
2021/01/03 04:04:23;;;;;;;10.73;9.25;;;;;;;2.68;68.89;98283.25;5027055;28;20213;-86
2021/01/03 04:06:49;;;;;;;14.23;9.82;;;;;;;2.81;68.44;98280.88;5050325;28;20221;-85
2021/01/03 04:09:16;;;;;;;12.98;9.52;;;;;;;2.77;68.55;98279.31;5055816;28;20238;-85
2021/01/03 04:11:45;;;;;;;12.85;9.48;;;;;;;2.86;68.20;98285.03;5059380;28;20209;-84
2021/01/03 04:14:13;;;;;;;11.30;9.82;;;;;;;2.84;68.17;98281.59;5047731;28;20299;-85
2021/01/03 04:16:47;;;;;;;13.65;10.63;;;;;;;2.95;67.81;98286.41;5035728;28;20221;-84
2021/01/03 04:19:14;;;;;;;14.27;9.82;;;;;;;2.86;67.73;98284.16;5022453;28;20263;-85
2021/01/03 04:21:41;;;;;;;11.65;9.35;;;;;;;2.85;68.04;98288.63;5052672;28;20236;-84
2021/01/03 04:24:08;;;;;;;13.43;9.70;;;;;;;2.76;67.86;98282.91;5056090;28;20212;-85
2021/01/03 04:26:43;;;;;;;12.32;9.98;;;;;;;2.80;68.17;98288.00;5064968;28;20192;-85
2021/01/03 04:29:09;;;;;;;12.73;9.77;;;;;;;2.77;67.46;98285.47;5043880;28;20307;-83
2021/01/03 04:31:35;;;;;;;14.95;10.85;;;;;;;2.82;67.96;98294.06;5033930;28;20260;-84
2021/01/03 04:34:01;;;;;;;12.50;10.00;;;;;;;2.82;67.82;98288.75;5039709;28;20250;-84
2021/01/03 04:36:28;;;;;;;10.88;9.77;;;;;;;2.86;67.45;98285.03;5029592;28;20220;-84
2021/01/03 04:38:54;;;;;;;10.18;8.43;;;;;;;3.02;67.02;98278.03;5059279;28;20306;-85
2021/01/03 04:41:28;;;;;;;13.80;10.07;;;;;;;2.93;66.81;98289.13;5060834;28;20207;-85
2021/01/03 04:44:00;;;;;;;12.20;9.38;;;;;;;2.89;67.29;98282.22;5042710;28;20228;-84
2021/01/03 04:46:34;;;;;;;12.73;9.40;;;;;;;2.92;66.83;98278.56;5024114;28;20217;-84
2021/01/03 04:49:05;;;;;;;11.65;9.20;;;;;;;2.98;66.60;98279.13;5064070;28;20243;-85
2021/01/03 04:52:03;;;;;;;12.20;9.10;;;;;;;2.89;66.81;98276.06;5047953;28;20216;-84
2021/01/03 04:54:33;;;;;;;13.50;10.25;;;;;;;2.86;66.93;98282.38;5022996;28;20317;-84
2021/01/03 04:57:07;;;;;;;12.00;9.30;;;;;;;2.84;66.86;98276.28;5038724;28;20295;-84
2021/01/03 04:59:52;;;;;;;13.60;10.15;;;;;;;2.77;67.20;98280.16;5062120;28;20493;-84
2021/01/03 05:02:54;;;;;;;12.20;9.55;;;;;;;2.83;67.35;98273.72;5051005;28;20216;-84
2021/01/03 05:05:29;;;;;;;14.77;10.60;;;;;;;2.86;67.20;98270.91;5042534;28;20200;-85
2021/01/03 05:08:10;;;;;;;13.10;10.75;;;;;;;2.96;67.11;98270.38;5060136;28;20216;-84
2021/01/03 05:10:37;;;;;;;12.85;10.27;;;;;;;3.02;66.83;98270.06;5038448;28;20224;-84
2021/01/03 05:13:31;;;;;;;12.50;9.10;;;;;;;2.94;66.63;98276.69;5026737;28;20243;-83
2021/01/03 05:15:57;;;;;;;12.00;9.32;;;;;;;2.91;66.74;98282.16;5070914;28;20221;-85
2021/01/03 05:18:23;;;;;;;11.02;9.05;;;;;;;2.84;67.16;98276.28;5024595;28;20234;-84
2021/01/03 05:20:56;;;;;;;12.88;10.40;;;;;;;2.92;67.39;98278.56;5056811;28;20200;-85
2021/01/03 05:23:25;;;;;;;12.98;10.13;;;;;;;2.84;66.91;98281.59;5042687;28;20237;-85
2021/01/03 05:25:54;;;;;;;11.90;9.82;;;;;;;2.81;67.42;98275.56;5060544;28;20228;-85
2021/01/03 05:28:26;;;;;;;12.30;9.60;;;;;;;2.76;67.90;98280.25;5038930;28;20232;-86
2021/01/03 05:31:09;;;;;;;13.88;10.60;;;;;;;2.81;67.55;98276.44;5067921;28;20284;-86
2021/01/03 05:33:35;;;;;;;12.70;10.88;;;;;;;2.76;67.73;98274.94;5052294;28;20220;-86
2021/01/03 05:36:01;;;;;;;11.95;9.73;;;;;;;2.82;67.87;98270.19;5042652;28;20204;-83
2021/01/03 05:38:42;;;;;;;12.07;10.10;;;;;;;2.92;67.62;98271.47;5064348;28;20224;-85
2021/01/03 05:41:19;;;;;;;16.33;10.57;;;;;;;2.95;67.46;98273.13;5052634;28;20220;-84
2021/01/03 05:44:08;;;;;;;12.07;10.65;;;;;;;2.89;67.49;98274.25;5037947;28;20216;-84
2021/01/03 05:46:44;;;;;;;10.88;9.02;;;;;;;2.90;67.96;98275.13;5059857;28;20450;-85
2021/01/03 05:49:20;;;;;;;13.73;10.50;;;;;;;2.89;67.74;98274.25;5054614;28;20220;-84
2021/01/03 05:51:50;;;;;;;12.50;10.40;;;;;;;2.90;68.12;98275.97;5037011;28;20216;-86
2021/01/03 05:54:24;;;;;;;13.45;10.10;;;;;;;2.92;68.10;98268.81;5036252;28;20228;-85
2021/01/03 05:56:50;;;;;;;17.10;11.95;;;;;;;2.86;67.97;98271.78;5040146;28;20210;-85
2021/01/03 05:59:28;;;;;;;14.50;11.10;;;;;;;2.92;67.85;98268.81;5027222;28;20220;-85
2021/01/03 06:02:07;;;;;;;14.70;10.80;;;;;;;2.94;67.98;98271.38;5039940;28;20220;-85
2021/01/03 06:04:33;;;;;;;14.57;11.05;;;;;;;3.00;67.69;98266.63;5041135;28;20216;-84
2021/01/03 06:07:07;;;;;;;14.32;10.32;;;;;;;2.92;67.94;98267.94;5038949;28;20221;-86
2021/01/03 06:09:39;;;;;;;15.15;11.15;;;;;;;2.82;68.57;98272.84;5037624;28;20739;-84
2021/01/03 06:12:25;;;;;;;13.68;11.20;;;;;;;2.81;68.65;98271.13;5045385;28;20201;-85
2021/01/03 06:14:54;;;;;;;13.82;10.45;;;;;;;2.74;69.04;98279.44;5034429;28;20197;-84
2021/01/03 06:17:32;;;;;;;13.82;10.63;;;;;;;2.73;69.25;98278.59;5031299;28;20347;-84
2021/01/03 06:20:06;;;;;;;14.43;10.90;;;;;;;2.77;69.45;98284.63;5073098;28;20238;-84
2021/01/03 06:22:35;;;;;;;13.90;10.50;;;;;;;2.81;69.08;98278.22;5045881;28;20246;-84
2021/01/03 06:25:12;;;;;;;13.95;10.90;;;;;;;2.87;68.92;98272.63;5049642;28;20230;-85
2021/01/03 06:27:39;;;;;;;16.58;12.68;;;;;;;2.86;69.22;98274.44;5050180;28;20216;-85
2021/01/03 06:30:13;;;;;;;17.52;12.30;;;;;;;2.74;69.56;98279.44;5072463;28;20211;-85
2021/01/03 06:32:51;;;;;;;15.57;12.43;;;;;;;2.77;69.42;98269.53;5063067;28;20180;-85
2021/01/03 06:35:48;;;;;;;16.10;11.65;;;;;;;2.80;69.38;98272.06;5052717;28;20229;-84
2021/01/03 06:38:32;;;;;;;16.33;11.48;;;;;;;2.83;69.45;98281.69;5034528;28;20228;-84
2021/01/03 06:41:12;;;;;;;16.02;11.30;;;;;;;2.82;69.31;98277.31;5047470;28;20207;-85
2021/01/03 06:44:08;;;;;;;17.67;11.38;;;;;;;2.87;69.32;98276.13;5071312;28;20216;-84
2021/01/03 06:47:03;;;;;;;17.42;12.50;;;;;;;2.90;69.21;98275.97;5065913;28;20244;-85
2021/01/03 06:49:44;;;;;;;15.02;11.75;;;;;;;2.95;69.57;98283.75;5072188;28;20220;-85
2021/01/03 06:52:52;;;;;;;15.38;11.48;;;;;;;3.08;68.37;98275.06;5034229;28;20255;-84
2021/01/03 06:55:52;;;;;;;15.57;11.75;;;;;;;3.04;68.68;98270.88;5043751;28;20221;-84
2021/01/03 06:58:49;;;;;;;14.35;11.40;;;;;;;3.06;68.45;98278.75;5069265;28;20205;-84
2021/01/03 07:01:39;;;;;;;15.45;11.80;;;;;;;3.11;68.30;98274.94;5044492;28;20224;-85
2021/01/03 07:04:15;;;;;;;14.48;12.32;;;;;;;3.02;68.67;98278.03;5030773;28;20260;-85
2021/01/03 07:06:45;;;;;;;14.93;12.02;;;;;;;3.02;68.72;98286.00;5024744;28;20330;-85
2021/01/03 07:09:13;;;;;;;17.40;12.40;;;;;;;3.10;68.22;98280.31;5014958;28;20307;-85
2021/01/03 07:11:39;;;;;;;14.18;11.77;;;;;;;3.14;68.14;98280.09;5021427;28;20211;-85
2021/01/03 07:14:08;;;;;;;16.02;11.52;;;;;;;3.01;68.44;98286.94;5049898;28;20228;-85
2021/01/03 07:17:03;;;;;;;17.48;12.00;;;;;;;3.03;68.75;98282.41;5052227;28;20842;-85
2021/01/03 07:19:29;;;;;;;17.92;12.60;;;;;;;2.95;68.48;98273.97;5032579;28;20232;-85
2021/01/03 07:22:11;;;;;;;18.13;12.70;;;;;;;2.92;69.20;98284.75;5037639;28;20788;-85
2021/01/03 07:24:57;;;;;;;16.50;11.43;;;;;;;2.97;69.10;98273.91;5029143;28;20223;-84
2021/01/03 07:27:39;;;;;;;18.98;13.35;;;;;;;3.00;69.09;98282.56;5051334;28;20219;-85
2021/01/03 07:30:06;;;;;;;16.02;12.45;;;;;;;3.04;68.79;98283.28;5048745;28;20267;-85
2021/01/03 07:32:38;;;;;;;13.73;11.40;;;;;;;3.01;68.97;98284.28;5048815;28;20205;-85
2021/01/03 07:35:32;;;;;;;17.08;12.80;;;;;;;3.05;68.53;98275.25;5027056;28;20485;-85
2021/01/03 07:38:29;;;;;;;16.58;12.50;;;;;;;2.97;68.52;98276.56;5019241;28;20220;-84
2021/01/03 07:41:06;;;;;;;15.45;12.75;;;;;;;3.05;68.38;98280.56;5037622;28;20585;-85
2021/01/03 07:43:52;;;;;;;17.40;13.55;;;;;;;3.07;68.48;98284.00;5040208;28;20224;-84
2021/01/03 07:46:47;;;;;;;19.35;13.95;;;;;;;3.03;68.83;98282.41;5048885;28;20292;-84
2021/01/03 07:49:25;;;;;;;18.13;12.95;;;;;;;2.91;68.74;98283.03;5066328;28;20260;-84
2021/01/03 07:51:51;;;;;;;16.80;12.70;;;;;;;2.92;69.15;98287.41;5034122;28;20221;-84
2021/01/03 07:54:17;;;;;;;20.33;14.48;;;;;;;2.94;69.49;98287.31;5067014;28;20218;-84
2021/01/03 07:56:43;;;;;;;18.42;13.40;;;;;;;2.97;69.41;98285.34;5059974;28;20196;-84
2021/01/03 07:59:09;;;;;;;17.40;13.35;;;;;;;2.95;69.50;98287.25;5034677;28;20663;-84
2021/01/03 08:01:45;;;;;;;18.58;13.55;;;;;;;3.02;69.06;98295.78;5038681;28;20212;-83
2021/01/03 08:04:26;;;;;;;18.85;13.35;;;;;;;3.11;69.18;98282.91;5053736;28;20231;-84
2021/01/03 08:07:08;;;;;;;16.55;13.05;;;;;;;3.04;69.38;98286.81;5065556;28;20247;-84
2021/01/03 08:09:35;;;;;;;15.20;12.10;;;;;;;3.09;69.32;98282.09;5019489;28;20229;-83
2021/01/03 08:12:21;;;;;;;19.17;12.85;;;;;;;3.03;69.39;98281.56;5035022;28;20208;-84
2021/01/03 08:14:57;;;;;;;17.55;12.85;;;;;;;2.95;69.83;98289.91;5057962;28;20203;-83
2021/01/03 08:17:35;;;;;;;24.60;15.00;;;;;;;2.94;69.84;98287.31;5039222;28;20219;-84
2021/01/03 08:20:04;;;;;;;22.50;14.32;;;;;;;2.84;70.31;98292.19;5037815;28;20291;-85
2021/01/03 08:22:31;;;;;;;21.13;13.38;;;;;;;2.86;70.56;98290.34;5059096;28;20307;-85
2021/01/03 08:25:00;;;;;;;15.35;11.75;;;;;;;2.83;70.55;98294.94;5040523;28;20224;-85
2021/01/03 08:27:51;;;;;;;16.58;12.52;;;;;;;2.92;70.56;98292.72;5043152;28;20232;-85
2021/01/03 08:30:21;;;;;;;17.23;12.55;;;;;;;2.99;70.54;98290.59;5064014;28;20259;-85
2021/01/03 08:32:48;;;;;;;16.27;11.50;;;;;;;3.12;69.76;98286.41;5053679;28;20201;-85
2021/01/03 08:35:26;;;;;;;15.98;12.07;;;;;;;3.03;70.20;98289.53;5066879;28;20432;-85
2021/01/03 08:37:52;;;;;;;16.35;12.35;;;;;;;2.98;70.28;98289.75;5078370;28;20255;-86
2021/01/03 08:40:38;;;;;;;15.20;11.65;;;;;;;3.05;69.98;98301.81;5061528;28;20254;-85
2021/01/03 08:43:11;;;;;;;19.05;12.98;;;;;;;2.89;70.26;98303.47;5056234;28;20311;-85
2021/01/03 08:45:43;;;;;;;15.65;11.20;;;;;;;2.92;70.48;98311.28;5057582;28;20248;-85
2021/01/03 08:48:18;;;;;;;18.52;14.25;;;;;;;2.96;70.86;98307.53;5071093;28;20255;-84
2021/01/03 08:50:44;;;;;;;16.55;12.85;;;;;;;2.99;70.60;98309.19;5058382;28;20218;-84
2021/01/03 08:53:20;;;;;;;15.20;11.32;;;;;;;2.99;70.55;98318.03;5050405;28;20209;-85
2021/01/03 08:55:46;;;;;;;13.98;12.43;;;;;;;2.94;71.14;98308.53;5054691;28;20244;-85
2021/01/03 08:58:15;;;;;;;15.70;12.27;;;;;;;2.94;70.95;98317.38;5057363;28;20216;-87
2021/01/03 09:00:45;;;;;;;16.20;12.23;;;;;;;2.98;70.63;98315.44;5059546;28;20208;-88
2021/01/03 09:03:18;;;;;;;18.80;11.77;;;;;;;3.16;70.58;98315.38;5042902;28;20197;-85
2021/01/03 09:05:47;;;;;;;15.68;12.25;;;;;;;3.02;70.71;98317.03;5068821;28;20181;-86
2021/01/03 09:08:32;;;;;;;18.92;12.27;;;;;;;2.99;71.00;98309.19;5057062;28;20208;-85
2021/01/03 09:11:13;;;;;;;18.15;12.25;;;;;;;3.08;70.81;98309.59;5060830;28;20348;-85
2021/01/03 09:13:47;;;;;;;13.25;11.35;;;;;;;3.13;70.79;98306.72;5048205;28;20247;-89
2021/01/03 09:16:25;;;;;;;13.38;10.85;;;;;;;3.25;70.31;98309.66;5069824;28;20273;-83
2021/01/03 09:19:14;;;;;;;15.50;10.77;;;;;;;3.38;69.88;98310.75;5051442;28;20232;-84
2021/01/03 09:22:07;;;;;;;14.70;11.52;;;;;;;3.54;69.14;98318.81;5053352;28;20222;-84
2021/01/03 09:24:36;;;;;;;13.65;11.77;;;;;;;3.66;69.06;98319.03;5063583;28;20220;-84
2021/01/03 09:27:04;;;;;;;13.90;11.45;;;;;;;3.78;68.38;98326.41;5070287;28;20185;-85
2021/01/03 09:29:40;;;;;;;15.00;12.50;;;;;;;3.81;68.88;98325.38;5040199;28;20217;-85
2021/01/03 09:32:22;;;;;;;15.43;11.80;;;;;;;3.76;68.87;98327.41;5053082;28;20257;-85
2021/01/03 09:35:25;;;;;;;16.02;11.55;;;;;;;3.74;69.08;98324.84;5045185;28;20231;-85
2021/01/03 09:38:33;;;;;;;17.77;12.93;;;;;;;3.63;69.53;98328.97;5040208;28;20244;-84
2021/01/03 09:41:24;;;;;;;13.55;11.27;;;;;;;3.61;70.12;98329.03;5022924;28;20247;-85
2021/01/03 09:44:15;;;;;;;15.20;12.18;;;;;;;3.56;70.76;98336.41;5039149;28;20216;-85
2021/01/03 09:46:58;;;;;;;15.23;11.93;;;;;;;3.56;71.25;98336.41;5048824;28;20204;-85
2021/01/03 09:49:37;;;;;;;18.35;12.23;;;;;;;3.64;71.53;98344.84;5053159;28;20225;-84
2021/01/03 09:55:17;;;;;;;15.82;12.52;;;;;;;3.32;73.65;98342.94;4961445;28;20219;-85
2021/01/03 09:57:56;;;;;;;17.88;13.57;;;;;;;3.35;73.88;98348.09;4938928;29;20233;-84
2021/01/03 10:00:45;;;;;;;15.80;12.20;;;;;;;3.25;74.44;98345.97;4932773;28;20221;-86
2021/01/03 10:03:31;;;;;;;13.40;11.50;;;;;;;3.22;74.73;98352.28;4941220;28;20197;-85
2021/01/03 10:06:10;;;;;;;16.45;13.30;;;;;;;3.23;74.82;98358.47;4945858;29;20201;-86
2021/01/03 10:08:36;;;;;;;17.60;12.90;;;;;;;3.37;75.47;98348.91;4949261;29;20224;-86
2021/01/03 10:11:04;;;;;;;16.27;12.93;;;;;;;3.40;75.25;98350.53;4923774;29;20231;-86
2021/01/03 10:13:31;;;;;;;16.35;12.63;;;;;;;3.41;75.11;98354.91;4944138;28;20227;-88
2021/01/03 10:16:22;;;;;;;14.77;11.40;;;;;;;3.28;75.31;98346.66;5002351;23;20252;-85
2021/01/03 10:18:50;;;;;;;16.70;12.65;;;;;;;3.26;75.78;98350.34;4958462;28;20219;-85
2021/01/03 10:21:37;;;;;;;18.80;13.65;;;;;;;3.31;76.05;98345.66;4935120;28;20250;-85
2021/01/03 10:24:18;;;;;;;18.67;13.02;;;;;;;3.25;76.41;98346.84;4960465;28;20226;-84
2021/01/03 10:27:03;;;;;;;15.45;11.82;;;;;;;3.37;75.96;98356.88;4997797;28;20734;-88
2021/01/03 10:29:33;;;;;;;16.70;13.15;;;;;;;3.44;75.87;98355.63;4960085;28;20250;-87
2021/01/03 10:32:00;;;;;;;15.50;12.55;;;;;;;3.51;75.40;98348.19;4986037;28;20602;-87
2021/01/03 10:34:27;;;;;;;16.00;13.00;;;;;;;3.49;75.41;98358.91;4992734;28;20314;-88
2021/01/03 10:36:58;;;;;;;18.02;12.10;;;;;;;3.57;75.03;98346.09;4993695;28;20261;-87
2021/01/03 10:39:26;;;;;;;15.05;12.52;;;;;;;3.63;74.91;98350.25;4968054;28;20235;-87
2021/01/03 10:42:00;;;;;;;15.80;12.18;;;;;;;3.66;74.76;98345.63;4995395;28;20183;-89
2021/01/03 10:44:43;;;;;;;21.65;14.75;;;;;;;3.73;75.09;98346.19;5007921;23;20228;31
2021/01/03 10:47:10;;;;;;;19.33;13.95;;;;;;;3.57;74.56;98348.75;4955455;28;20230;-87
2021/01/03 10:50:02;;;;;;;20.00;14.68;;;;;;;3.77;75.10;98340.63;4922761;28;20715;-87
2021/01/03 10:52:29;;;;;;;17.40;13.05;;;;;;;3.81;74.20;98341.34;4897704;28;20776;-88
2021/01/03 10:54:55;;;;;;;14.10;11.40;;;;;;;3.80;74.18;98339.63;4906890;29;20229;-88
2021/01/03 10:57:22;;;;;;;15.07;12.50;;;;;;;3.86;74.34;98334.81;4903402;29;20294;-88
2021/01/03 10:59:51;;;;;;;17.77;13.50;;;;;;;3.82;74.70;98335.94;4900641;29;20222;-87
2021/01/03 11:02:17;;;;;;;17.23;13.40;;;;;;;3.72;74.38;98329.38;4912259;29;20239;-87
2021/01/03 11:04:43;;;;;;;17.25;13.60;;;;;;;3.62;75.42;98329.91;4929444;28;20233;-87
2021/01/03 11:07:10;;;;;;;18.20;14.57;;;;;;;3.81;75.71;98325.38;4924503;28;20584;-87
2021/01/03 11:09:38;;;;;;;17.70;13.23;;;;;;;3.87;74.88;98327.72;4922325;28;20713;-87
2021/01/03 11:12:08;;;;;;;15.70;13.27;;;;;;;3.72;74.52;98325.88;4909483;28;20210;-87
2021/01/03 11:14:35;;;;;;;15.95;12.93;;;;;;;3.49;75.01;98321.72;4924509;29;20233;-87
2021/01/03 11:17:09;;;;;;;16.08;12.18;;;;;;;3.50;75.63;98326.09;4922634;29;20320;-87
2021/01/03 11:19:39;;;;;;;17.13;12.57;;;;;;;3.69;75.97;98320.69;4925024;29;20218;-87
2021/01/03 11:22:11;;;;;;;18.60;12.10;;;;;;;3.60;75.70;98316.69;4910083;29;20229;-88
2021/01/03 11:24:38;;;;;;;17.20;12.50;;;;;;;3.70;75.54;98315.31;4898047;28;20234;-87
2021/01/03 11:27:08;;;;;;;16.15;12.65;;;;;;;3.83;75.20;98311.06;4911676;28;20202;-87
2021/01/03 11:29:49;;;;;;;17.70;13.20;;;;;;;3.82;75.14;98320.00;4929141;29;20226;-87
2021/01/03 11:32:25;;;;;;;17.23;12.00;;;;;;;3.84;74.98;98318.09;4923146;28;20222;-86
2021/01/03 11:34:52;;;;;;;16.13;12.57;;;;;;;3.95;74.67;98310.44;4936818;28;20699;-89
2021/01/03 11:37:24;;;;;;;16.23;12.48;;;;;;;3.89;74.75;98310.75;4927771;28;20230;-87
2021/01/03 11:39:51;;;;;;;17.23;12.65;;;;;;;3.83;75.31;98308.41;4910465;28;20242;-85
2021/01/03 11:42:36;;;;;;;16.48;12.18;;;;;;;3.70;75.52;98303.78;4944485;28;20226;-85
2021/01/03 11:45:10;;;;;;;15.93;12.55;;;;;;;3.80;75.69;98303.25;4914004;28;20224;-85
2021/01/03 11:47:39;;;;;;;17.33;13.88;;;;;;;3.88;76.06;98305.50;4916539;29;20237;-85
2021/01/03 11:50:08;;;;;;;17.23;14.15;;;;;;;3.94;75.85;98298.09;4926666;28;20310;-84
2021/01/03 11:52:34;;;;;;;18.95;13.40;;;;;;;4.02;74.73;98297.66;4931312;28;20235;-85
2021/01/03 11:55:02;;;;;;;18.15;13.63;;;;;;;3.92;74.67;98291.97;4938767;29;20226;-86
2021/01/03 11:57:30;;;;;;;19.15;15.07;;;;;;;3.89;75.26;98293.94;4930818;28;20228;-87
2021/01/03 11:59:59;;;;;;;20.25;15.65;;;;;;;3.85;75.18;98289.72;4931048;29;20204;-86
2021/01/03 12:02:28;;;;;;;17.75;13.43;;;;;;;3.98;75.67;98294.31;4933557;29;20216;-85
2021/01/03 12:04:54;;;;;;;16.45;13.38;;;;;;;4.21;74.48;98293.97;4932099;29;20236;-85